Terminal Aerodrome Forecast
Issued by NWS

Home | Current Version | Previous Version | Text Only | Print | Product List | Glossary On
Versions: 1 2 3 4 5 6 7 8 9 10 11 12 13 14 15 16 17 18 19 20
478
FTUS41 KCAR 071757
TAFHUL
TAF
KHUL 071757Z 0718/0818 30013G20KT P6SM SCT250
     FM072000 32009KT P6SM FEW250
     FM080200 35005KT P6SM FEW120
     FM081400 04009KT P6SM BKN015=

USA.gov is the U.S. government's official web portal to all federal, state and local government web resources and services.